createdAt,value
2022-11-04T00:01:33.797Z,15.19
2022-11-04T00:04:01.245Z,15.35
2022-11-04T00:06:30.153Z,15.24
2022-11-04T00:08:58.693Z,15.19
2022-11-04T00:11:43.961Z,15.33
2022-11-04T00:14:11.671Z,14.96
2022-11-04T00:16:56.960Z,15.32
2022-11-04T00:19:24.666Z,14.85
2022-11-04T00:22:25.431Z,14.98
2022-11-04T00:25:10.687Z,15.33
2022-11-04T00:27:55.798Z,15.33
2022-11-04T00:30:23.224Z,15.33
2022-11-04T00:33:08.208Z,15.34
2022-11-04T00:35:35.708Z,15.32
2022-11-04T00:38:04.585Z,15.32
2022-11-04T00:40:32.047Z,15.31
2022-11-04T00:42:59.501Z,15.33
2022-11-04T00:45:26.960Z,15.30
2022-11-04T00:47:54.417Z,15.33
2022-11-04T00:50:21.860Z,15.31
2022-11-04T00:52:49.345Z,15.31
2022-11-04T00:55:18.129Z,15.32
2022-11-04T00:57:45.548Z,15.31
2022-11-04T01:00:14.606Z,15.30
2022-11-04T01:02:42.131Z,15.30
2022-11-04T01:05:10.472Z,15.33
2022-11-04T01:07:43.411Z,15.30
2022-11-04T01:10:11.351Z,15.31
2022-11-04T01:12:40.103Z,15.31
2022-11-04T01:15:08.171Z,15.28
2022-11-04T01:17:35.604Z,15.28
2022-11-04T01:20:03.594Z,15.28
2022-11-04T01:22:31.023Z,15.28
2022-11-04T01:24:58.447Z,15.28
2022-11-04T01:27:25.876Z,15.29
2022-11-04T01:29:54.639Z,14.57
2022-11-04T01:32:22.149Z,15.28
2022-11-04T01:34:49.606Z,15.27
2022-11-04T01:37:17.085Z,15.14
2022-11-04T01:39:44.980Z,15.17
2022-11-04T01:42:14.585Z,15.27
2022-11-04T01:44:54.334Z,14.83
2022-11-04T01:47:24.318Z,15.25
2022-11-04T01:49:53.337Z,15.16
2022-11-04T01:52:23.658Z,15.23
2022-11-04T01:54:51.510Z,14.91
2022-11-04T01:57:20.867Z,15.25
2022-11-04T01:59:48.313Z,15.22
2022-11-04T02:02:17.204Z,15.24
2022-11-04T02:04:44.739Z,15.28
2022-11-04T02:07:12.246Z,15.27
2022-11-04T02:09:40.310Z,15.29
2022-11-04T02:12:25.728Z,15.29
2022-11-04T02:14:53.244Z,15.27
2022-11-04T02:17:36.536Z,15.18
2022-11-04T02:20:18.337Z,15.05
2022-11-04T02:22:58.906Z,15.31
2022-11-04T02:25:36.714Z,15.32
2022-11-04T02:28:26.905Z,15.14
2022-11-04T02:30:55.923Z,15.27
2022-11-04T02:33:23.846Z,15.27
2022-11-04T02:35:55.580Z,15.29
2022-11-04T02:38:34.996Z,15.30
2022-11-04T02:41:07.063Z,15.32
2022-11-04T02:43:36.666Z,15.30
2022-11-04T02:46:06.251Z,15.26
2022-11-04T02:48:36.966Z,15.29
2022-11-04T02:51:05.976Z,15.31
2022-11-04T02:53:35.361Z,15.33
2022-11-04T02:56:03.026Z,15.26
2022-11-04T02:58:32.788Z,15.31
2022-11-04T03:01:00.274Z,15.05
2022-11-04T03:03:29.899Z,15.31
2022-11-04T03:05:57.632Z,15.31
2022-11-04T03:08:27.746Z,15.30
2022-11-04T03:10:55.823Z,15.26
2022-11-04T03:13:25.023Z,14.81
2022-11-04T03:15:54.049Z,15.26
2022-11-04T03:18:24.857Z,14.99
2022-11-04T03:20:53.627Z,14.84
2022-11-04T03:23:21.180Z,15.29
2022-11-04T03:25:49.169Z,15.07
2022-11-04T03:28:23.595Z,15.26
2022-11-04T03:30:52.678Z,15.25
2022-11-04T03:33:21.724Z,15.25
2022-11-04T03:35:49.228Z,15.25
2022-11-04T03:38:18.059Z,14.90
2022-11-04T03:40:45.527Z,14.81
2022-11-04T03:43:15.265Z,15.25
2022-11-04T03:45:42.797Z,15.12
2022-11-04T03:48:10.319Z,15.15
2022-11-04T03:50:41.369Z,15.25
2022-11-04T03:53:09.247Z,15.20
2022-11-04T03:55:42.149Z,15.16
2022-11-04T03:58:11.399Z,15.16
2022-11-04T04:00:41.106Z,15.19
2022-11-04T04:03:09.728Z,15.16
2022-11-04T04:05:39.710Z,15.13
2022-11-04T04:08:13.344Z,15.16
2022-11-04T04:10:43.434Z,15.08
2022-11-04T04:13:13.384Z,15.13
2022-11-04T04:15:44.109Z,15.12
2022-11-04T04:18:13.633Z,15.13
2022-11-04T04:20:41.082Z,14.68
2022-11-04T04:23:30.417Z,15.13
2022-11-04T04:26:18.707Z,15.13
2022-11-04T04:28:46.157Z,15.10
2022-11-04T04:31:13.671Z,15.11
2022-11-04T04:33:41.199Z,15.11
2022-11-04T04:36:08.766Z,15.12
2022-11-04T04:38:53.753Z,14.79
2022-11-04T04:41:41.468Z,15.15
2022-11-04T04:44:30.102Z,15.13
2022-11-04T04:46:57.593Z,15.13
2022-11-04T04:49:34.845Z,15.11
2022-11-04T04:52:02.431Z,14.93
2022-11-04T04:54:29.928Z,15.11
2022-11-04T04:56:58.734Z,15.12
2022-11-04T04:59:26.225Z,15.10
2022-11-04T05:01:53.801Z,15.09
2022-11-04T05:04:21.429Z,15.11
2022-11-04T05:06:48.974Z,15.02
2022-11-04T05:09:16.505Z,15.09
2022-11-04T05:11:43.980Z,15.08
2022-11-04T05:14:12.750Z,14.68
2022-11-04T05:16:41.046Z,14.92
2022-11-04T05:19:08.733Z,15.03
2022-11-04T05:21:36.188Z,15.10
2022-11-04T05:24:03.646Z,15.06
2022-11-04T05:26:31.165Z,15.05
2022-11-04T05:28:58.799Z,15.04
2022-11-04T05:31:28.479Z,14.42
2022-11-04T05:33:55.969Z,15.02
2022-11-04T05:36:23.507Z,14.82
2022-11-04T05:38:51.371Z,15.04
2022-11-04T05:41:25.787Z,15.04
2022-11-04T05:43:53.844Z,15.03
2022-11-04T05:46:21.263Z,14.82
2022-11-04T05:48:50.075Z,15.06
2022-11-04T05:51:18.374Z,15.00
2022-11-04T05:53:45.868Z,15.03
2022-11-04T05:56:13.379Z,14.83
2022-11-04T05:58:40.845Z,15.04
2022-11-04T06:01:15.494Z,14.53
2022-11-04T06:03:43.479Z,15.01
2022-11-04T06:06:12.233Z,15.01
2022-11-04T06:08:44.907Z,15.03
2022-11-04T06:11:12.696Z,15.00
2022-11-04T06:13:40.207Z,14.64
2022-11-04T06:16:08.059Z,15.00
2022-11-04T06:18:35.543Z,14.97
2022-11-04T06:21:24.995Z,14.99
2022-11-04T06:23:52.916Z,14.96
2022-11-04T06:26:25.147Z,14.97
2022-11-04T06:28:54.536Z,14.98
2022-11-04T06:31:22.096Z,14.96
2022-11-04T06:33:49.591Z,14.95
2022-11-04T06:36:17.254Z,14.99
2022-11-04T06:38:46.103Z,14.95
2022-11-04T06:41:14.705Z,14.93
2022-11-04T06:43:42.188Z,14.89
2022-11-04T06:46:27.274Z,14.44
2022-11-04T06:48:54.793Z,14.69
2022-11-04T06:51:22.254Z,14.87
2022-11-04T06:53:51.123Z,14.91
2022-11-04T06:56:18.630Z,14.86
2022-11-04T06:58:48.917Z,14.99
2022-11-04T07:01:21.540Z,14.79
2022-11-04T07:03:49.934Z,14.93
2022-11-04T07:06:17.615Z,14.94
2022-11-04T07:08:45.084Z,14.75
2022-11-04T07:11:13.928Z,15.03
2022-11-04T07:13:41.715Z,15.00
2022-11-04T07:16:09.798Z,14.98
2022-11-04T07:18:37.259Z,14.98
2022-11-04T07:21:09.772Z,14.95
2022-11-04T07:23:37.719Z,14.91
2022-11-04T07:26:06.577Z,14.68
2022-11-04T07:28:35.416Z,14.65
2022-11-04T07:31:03.168Z,14.73
2022-11-04T07:33:30.632Z,14.93
2022-11-04T07:35:58.591Z,14.87
2022-11-04T07:38:26.239Z,14.90
2022-11-04T07:40:53.992Z,14.92
2022-11-04T07:43:21.474Z,14.98
2022-11-04T07:45:59.998Z,15.00
2022-11-04T07:48:27.582Z,14.96
2022-11-04T07:50:56.743Z,14.99
2022-11-04T07:53:24.212Z,14.88
2022-11-04T07:55:51.722Z,15.04
2022-11-04T07:58:19.387Z,15.01
2022-11-04T08:00:46.879Z,14.81
2022-11-04T08:03:15.775Z,15.01
2022-11-04T08:05:43.578Z,15.05
2022-11-04T08:08:11.122Z,15.06
2022-11-04T08:10:38.609Z,15.09
2022-11-04T08:13:06.325Z,15.13
2022-11-04T08:15:36.544Z,15.14
2022-11-04T08:18:04.646Z,15.11
2022-11-04T08:20:33.412Z,15.08
2022-11-04T08:23:00.867Z,15.13
2022-11-04T08:25:28.409Z,15.16
2022-11-04T08:28:00.654Z,15.14
2022-11-04T08:30:28.645Z,14.91
2022-11-04T08:32:56.077Z,14.84
2022-11-04T08:35:23.557Z,14.58
2022-11-04T08:37:52.315Z,14.52
2022-11-04T08:40:19.808Z,14.79
2022-11-04T08:42:47.464Z,14.81
2022-11-04T08:45:14.915Z,14.85
2022-11-04T08:47:42.366Z,14.88
2022-11-04T08:50:11.386Z,14.82
2022-11-04T08:52:38.848Z,14.91
2022-11-04T08:55:09.831Z,14.91
2022-11-04T08:57:37.326Z,14.95
2022-11-04T09:00:06.061Z,14.96
2022-11-04T09:02:33.492Z,15.01
2022-11-04T09:05:01.820Z,15.06
2022-11-04T09:07:29.271Z,15.08
2022-11-04T09:09:56.709Z,15.15
2022-11-04T09:12:25.476Z,15.10
2022-11-04T09:14:53.166Z,14.80
2022-11-04T09:17:20.621Z,15.20
2022-11-04T09:19:48.057Z,15.17
2022-11-04T09:22:15.503Z,15.17
2022-11-04T09:24:42.966Z,15.00
2022-11-04T09:27:10.433Z,15.15
2022-11-04T09:29:39.210Z,15.17
2022-11-04T09:32:06.973Z,15.17
2022-11-04T09:34:34.623Z,15.16
2022-11-04T09:37:02.100Z,15.20
2022-11-04T09:39:29.559Z,15.18
2022-11-04T09:42:06.328Z,15.17
2022-11-04T09:44:59.661Z,15.17
2022-11-04T09:47:26.665Z,15.15
2022-11-04T09:49:57.474Z,14.86
2022-11-04T09:52:26.364Z,15.13
2022-11-04T09:54:55.814Z,15.03
2022-11-04T09:57:24.239Z,15.13
2022-11-04T09:59:51.701Z,15.14
2022-11-04T10:02:31.570Z,15.15
2022-11-04T10:05:04.669Z,15.15
2022-11-04T10:07:43.800Z,15.15
2022-11-04T10:10:13.966Z,15.16
2022-11-04T10:12:43.871Z,15.17
2022-11-04T10:15:32.495Z,15.15
2022-11-04T10:18:07.604Z,15.20
2022-11-04T10:20:48.716Z,15.23
2022-11-04T10:23:22.142Z,15.23
2022-11-04T10:25:50.436Z,15.22
2022-11-04T10:28:19.286Z,15.23
2022-11-04T10:30:47.932Z,15.26
2022-11-04T10:33:23.527Z,15.24
2022-11-04T10:35:51.853Z,15.28
2022-11-04T10:38:20.706Z,15.27
2022-11-04T10:40:49.686Z,15.29
2022-11-04T10:43:19.004Z,15.27
2022-11-04T10:45:51.370Z,14.96
2022-11-04T10:48:22.303Z,15.29
2022-11-04T10:50:51.946Z,14.95
2022-11-04T10:53:19.892Z,15.31
2022-11-04T10:55:50.573Z,15.18
2022-11-04T10:58:21.672Z,15.04
2022-11-04T11:00:50.309Z,15.01
2022-11-04T11:03:29.896Z,15.09
2022-11-04T11:06:11.998Z,15.39
2022-11-04T11:08:39.455Z,15.39
2022-11-04T11:11:07.360Z,15.45
2022-11-04T11:13:36.303Z,15.49
2022-11-04T11:16:09.194Z,15.22
2022-11-04T11:18:38.433Z,15.57
2022-11-04T11:21:08.899Z,15.58
2022-11-04T11:23:39.048Z,15.56
2022-11-04T11:26:07.115Z,15.59
2022-11-04T11:28:38.008Z,15.61
2022-11-04T11:31:08.561Z,15.21
2022-11-04T11:33:37.979Z,15.64
2022-11-04T11:36:11.878Z,15.44
2022-11-04T11:38:39.547Z,15.24
2022-11-04T11:41:24.495Z,15.49
2022-11-04T11:43:52.886Z,15.40
2022-11-04T11:46:22.560Z,15.73
2022-11-04T11:48:52.841Z,15.75
2022-11-04T11:51:29.035Z,15.78
2022-11-04T11:54:03.953Z,15.81
2022-11-04T11:56:52.051Z,15.83
2022-11-04T12:02:24.238Z,15.88
2022-11-04T12:10:50.324Z,15.98
2022-11-04T12:13:24.497Z,15.98
2022-11-04T12:16:06.320Z,16.01
2022-11-04T12:18:43.889Z,16.04
2022-11-04T12:21:15.849Z,16.05
2022-11-04T12:23:47.253Z,16.08
2022-11-04T12:26:18.364Z,16.11
2022-11-04T12:28:53.761Z,16.00
2022-11-04T12:31:25.356Z,16.03
2022-11-04T12:33:58.851Z,15.91
2022-11-04T12:36:33.065Z,16.16
2022-11-04T12:39:11.746Z,16.23
2022-11-04T12:42:06.763Z,16.27
2022-11-04T12:44:34.349Z,15.86
2022-11-04T12:47:08.772Z,16.22
2022-11-04T12:50:04.285Z,16.20
2022-11-04T12:52:59.966Z,16.18
2022-11-04T12:55:33.149Z,16.15
2022-11-04T12:58:04.816Z,16.17
2022-11-04T13:00:32.263Z,16.15
2022-11-04T13:03:02.124Z,16.13
2022-11-04T13:05:35.013Z,16.13
2022-11-04T13:08:13.772Z,16.12
2022-11-04T13:10:44.300Z,16.13
2022-11-04T13:13:12.197Z,16.13
2022-11-04T13:15:44.410Z,16.14
2022-11-04T13:18:13.520Z,16.14
2022-11-04T13:20:44.397Z,16.13
2022-11-04T13:23:17.620Z,16.13
2022-11-04T13:25:45.727Z,16.14
2022-11-04T13:28:13.964Z,16.12
2022-11-04T13:30:45.872Z,16.14
2022-11-04T13:33:15.583Z,16.14
2022-11-04T13:35:47.854Z,16.14
2022-11-04T13:38:18.501Z,16.17
2022-11-04T13:40:50.364Z,15.79
2022-11-04T13:43:38.860Z,16.17
2022-11-04T13:46:08.397Z,16.13
2022-11-04T13:48:37.821Z,16.01
2022-11-04T13:51:06.676Z,16.08
2022-11-04T13:53:46.240Z,16.27
2022-11-04T13:56:33.217Z,16.30
2022-11-04T13:59:05.272Z,16.31
2022-11-04T14:01:33.245Z,16.33
2022-11-04T14:04:07.008Z,16.37
2022-11-04T14:06:51.830Z,16.37
2022-11-04T14:09:55.480Z,16.36
2022-11-04T14:12:32.477Z,16.36
2022-11-04T14:15:10.625Z,16.35
2022-11-04T14:18:02.938Z,16.36
2022-11-04T14:20:32.834Z,16.15
2022-11-04T14:23:00.917Z,16.32
2022-11-04T14:25:32.013Z,16.35
2022-11-04T14:28:00.261Z,16.36
2022-11-04T14:30:45.038Z,16.14
2022-11-04T14:33:39.181Z,15.99
2022-11-04T14:36:28.924Z,16.25
2022-11-04T14:38:57.685Z,15.94
2022-11-04T14:41:34.524Z,16.28
2022-11-04T14:44:02.998Z,16.24
2022-11-04T14:46:31.924Z,16.12
2022-11-04T14:49:01.683Z,16.20
2022-11-04T14:51:30.215Z,15.78
2022-11-04T14:54:04.674Z,16.16
2022-11-04T14:56:33.623Z,16.14
2022-11-04T14:59:01.846Z,15.69
2022-11-04T15:01:34.689Z,16.12
2022-11-04T15:04:12.275Z,15.87
2022-11-04T15:06:54.543Z,15.70
2022-11-04T15:09:23.709Z,16.08
2022-11-04T15:12:10.382Z,16.08
2022-11-04T15:14:37.969Z,15.71
2022-11-04T15:17:05.460Z,16.07
2022-11-04T15:19:33.556Z,16.07
2022-11-04T15:22:01.075Z,16.07
2022-11-04T15:24:28.545Z,16.06
2022-11-04T15:27:01.663Z,16.06
2022-11-04T15:29:29.100Z,16.05
2022-11-04T15:31:57.868Z,16.05
2022-11-04T15:34:26.576Z,16.03
2022-11-04T15:36:55.269Z,16.05
2022-11-04T15:39:23.742Z,16.04
2022-11-04T15:42:09.194Z,16.03
2022-11-04T15:44:38.519Z,15.72
2022-11-04T15:47:22.856Z,16.02
2022-11-04T15:49:50.919Z,16.00
2022-11-04T15:52:20.564Z,16.00
2022-11-04T15:54:48.714Z,15.96
2022-11-04T15:57:16.896Z,15.97
2022-11-04T15:59:48.066Z,15.96
2022-11-04T16:02:21.230Z,15.86
2022-11-04T16:05:03.603Z,15.91
2022-11-04T16:07:31.753Z,15.92
2022-11-04T16:09:59.242Z,15.90
2022-11-04T16:12:28.148Z,15.91
2022-11-04T16:14:57.269Z,15.87
2022-11-04T16:17:24.936Z,15.87
2022-11-04T16:19:53.951Z,15.87
2022-11-04T16:22:24.917Z,15.87
2022-11-04T16:24:52.725Z,15.52
2022-11-04T16:27:21.452Z,15.86
2022-11-04T16:29:53.364Z,15.86
2022-11-04T16:32:26.577Z,15.85
2022-11-04T16:34:57.388Z,15.83
2022-11-04T16:37:25.740Z,15.84
2022-11-04T16:39:53.211Z,15.83
2022-11-04T16:42:20.731Z,15.81
2022-11-04T16:44:49.396Z,15.81
2022-11-04T16:47:17.061Z,15.81
2022-11-04T16:49:45.804Z,15.80
2022-11-04T16:52:15.280Z,15.78
2022-11-04T16:54:42.807Z,15.78
2022-11-04T16:57:13.138Z,15.80
2022-11-04T16:59:40.968Z,15.78
2022-11-04T17:02:21.024Z,15.78
2022-11-04T17:04:49.778Z,15.75
2022-11-04T17:07:17.224Z,15.75
2022-11-04T17:09:44.692Z,15.75
2022-11-04T17:12:12.190Z,15.75
2022-11-04T17:14:39.737Z,15.77
2022-11-04T17:17:08.099Z,15.28
2022-11-04T17:19:35.537Z,15.75
2022-11-04T17:22:05.350Z,15.74
2022-11-04T17:24:32.821Z,15.74
2022-11-04T17:27:00.803Z,15.73
2022-11-04T17:29:29.792Z,15.26
2022-11-04T17:31:57.253Z,15.69
2022-11-04T17:34:25.876Z,15.67
2022-11-04T17:36:53.535Z,15.66
2022-11-04T17:39:22.365Z,15.35
2022-11-04T17:42:07.773Z,15.66
2022-11-04T17:44:35.238Z,15.65
2022-11-04T17:47:02.725Z,15.65
2022-11-04T17:49:30.732Z,15.66
2022-11-04T17:52:00.544Z,15.45
2022-11-04T17:54:30.154Z,15.66
2022-11-04T17:56:57.698Z,15.65
2022-11-04T17:59:25.196Z,15.66
2022-11-04T18:01:52.760Z,15.65
2022-11-04T18:04:21.621Z,15.64
2022-11-04T18:06:49.401Z,15.27
2022-11-04T18:09:17.109Z,15.63
2022-11-04T18:12:03.296Z,15.61
2022-11-04T18:14:30.790Z,15.31
2022-11-04T18:16:58.413Z,15.59
2022-11-04T18:19:27.074Z,15.58
2022-11-04T18:21:54.537Z,15.58
2022-11-04T18:24:22.089Z,15.58
2022-11-04T18:26:50.943Z,15.50
2022-11-04T18:29:18.468Z,15.57
2022-11-04T18:31:49.410Z,15.57
2022-11-04T18:34:19.258Z,15.57
2022-11-04T18:36:46.845Z,15.53
2022-11-04T18:39:15.013Z,15.17
2022-11-04T18:41:42.550Z,15.55
2022-11-04T18:44:13.834Z,15.55
2022-11-04T18:46:41.286Z,15.53
2022-11-04T18:49:08.743Z,15.52
2022-11-04T18:51:36.280Z,15.51
2022-11-04T18:54:04.271Z,15.51
2022-11-04T18:56:31.811Z,15.22
2022-11-04T18:58:59.226Z,15.51
2022-11-04T19:01:29.201Z,15.18
2022-11-04T19:03:56.636Z,15.49
2022-11-04T19:06:25.066Z,15.48
2022-11-04T19:08:52.875Z,15.47
2022-11-04T19:11:21.410Z,15.50
2022-11-04T19:13:51.067Z,15.45
2022-11-04T19:16:18.530Z,15.47
2022-11-04T19:18:49.210Z,15.49
2022-11-04T19:21:18.564Z,15.39
2022-11-04T19:23:46.670Z,15.49
2022-11-04T19:26:15.373Z,15.47
2022-11-04T19:28:48.332Z,15.08
2022-11-04T19:31:17.793Z,15.45
2022-11-04T19:33:46.720Z,15.08
2022-11-04T19:36:14.758Z,15.13
2022-11-04T19:38:43.581Z,15.14
2022-11-04T19:41:34.141Z,15.33
2022-11-04T19:44:01.021Z,15.45
2022-11-04T19:46:28.522Z,15.46
2022-11-04T19:48:58.030Z,15.46
2022-11-04T19:51:31.594Z,15.44
2022-11-04T19:53:59.566Z,15.15
2022-11-04T19:56:27.046Z,15.46
2022-11-04T19:58:54.531Z,15.46
2022-11-04T20:01:22.118Z,15.45
2022-11-04T20:03:50.339Z,15.45
2022-11-04T20:06:19.204Z,15.42
2022-11-04T20:08:48.739Z,15.42
2022-11-04T20:11:16.339Z,15.42
2022-11-04T20:13:47.074Z,15.41
2022-11-04T20:16:16.949Z,15.41
2022-11-04T20:18:44.659Z,15.40
2022-11-04T20:21:12.314Z,15.20
2022-11-04T20:23:41.151Z,15.02
2022-11-04T20:26:10.512Z,15.26
2022-11-04T20:28:38.401Z,15.36
2022-11-04T20:31:12.776Z,15.36
2022-11-04T20:33:40.265Z,15.36
2022-11-04T20:36:08.395Z,15.05
2022-11-04T20:38:36.105Z,15.38
2022-11-04T20:41:06.188Z,15.39
2022-11-04T20:43:34.395Z,15.37
2022-11-04T20:46:06.130Z,15.37
2022-11-04T20:48:34.466Z,15.32
2022-11-04T20:51:06.299Z,15.35
2022-11-04T20:53:33.753Z,15.34
2022-11-04T20:56:01.212Z,15.34
2022-11-04T20:58:30.792Z,15.34
2022-11-04T21:01:01.033Z,15.32
2022-11-04T21:03:28.862Z,15.31
2022-11-04T21:05:56.434Z,15.31
2022-11-04T21:08:23.937Z,14.99
2022-11-04T21:10:51.411Z,15.30
2022-11-04T21:13:18.866Z,15.18
2022-11-04T21:15:51.226Z,15.29
2022-11-04T21:18:18.683Z,15.27
2022-11-04T21:20:46.371Z,15.28
2022-11-04T21:23:14.487Z,14.98
2022-11-04T21:25:42.148Z,15.18
2022-11-04T21:28:09.840Z,15.20
2022-11-04T21:30:37.898Z,15.16
2022-11-04T21:33:06.816Z,15.16
2022-11-04T21:35:35.013Z,14.77
2022-11-04T21:38:02.501Z,15.16
2022-11-04T21:40:30.084Z,15.18
2022-11-04T21:42:57.585Z,15.20
2022-11-04T21:45:25.135Z,14.88
2022-11-04T21:47:52.703Z,14.72
2022-11-04T21:50:21.497Z,15.13
2022-11-04T21:52:48.938Z,15.09
2022-11-04T21:55:16.529Z,15.07
2022-11-04T21:57:43.982Z,15.04
2022-11-04T22:00:13.885Z,15.07
2022-11-04T22:02:43.415Z,15.07
2022-11-04T22:05:11.359Z,14.75
2022-11-04T22:08:09.017Z,15.00
2022-11-04T22:10:36.885Z,15.04
2022-11-04T22:13:04.474Z,15.06
2022-11-04T22:15:49.900Z,15.07
2022-11-04T22:18:17.461Z,15.06
2022-11-04T22:20:44.914Z,15.01
2022-11-04T22:23:13.676Z,15.03
2022-11-04T22:25:44.684Z,15.01
2022-11-04T22:28:15.668Z,15.04
2022-11-04T22:30:43.167Z,15.05
2022-11-04T22:33:10.833Z,15.05
2022-11-04T22:35:38.475Z,15.04
2022-11-04T22:38:05.975Z,14.73
2022-11-04T22:40:34.832Z,14.99
2022-11-04T22:43:02.319Z,14.56
2022-11-04T22:45:29.813Z,15.03
2022-11-04T22:47:57.284Z,15.00
2022-11-04T22:50:24.755Z,14.95
2022-11-04T22:52:52.269Z,14.96
2022-11-04T22:55:19.797Z,14.74
2022-11-04T22:57:48.616Z,14.94
2022-11-04T23:00:16.752Z,14.89
2022-11-04T23:02:44.828Z,14.88
2022-11-04T23:05:13.458Z,14.88
2022-11-04T23:07:41.420Z,14.86
2022-11-04T23:10:27.388Z,14.75
2022-11-04T23:13:14.017Z,14.80
2022-11-04T23:15:59.314Z,14.59
2022-11-04T23:18:45.815Z,14.78
2022-11-04T23:21:32.250Z,14.77
2022-11-04T23:24:17.512Z,14.44
2022-11-04T23:26:46.092Z,14.83
2022-11-04T23:29:33.034Z,14.80
2022-11-04T23:34:39.216Z,14.73
2022-11-04T23:37:15.822Z,14.35
2022-11-04T23:39:44.125Z,14.42
2022-11-04T23:42:17.356Z,14.72
2022-11-04T23:45:08.281Z,14.41
2022-11-04T23:47:54.122Z,14.69
2022-11-04T23:50:39.533Z,14.35
2022-11-04T23:53:24.874Z,14.20
2022-11-04T23:56:10.130Z,14.68
2022-11-04T23:58:55.623Z,14.65
